createdAt,value
2018-12-22T00:02:18.626Z,-2.90
2018-12-22T00:04:50.487Z,-2.90
2018-12-22T00:07:22.303Z,-2.80
2018-12-22T00:09:55.029Z,-2.80
2018-12-22T00:12:26.900Z,-2.80
2018-12-22T00:14:59.086Z,-2.80
2018-12-22T00:17:30.751Z,-2.80
2018-12-22T00:20:02.412Z,-2.70
2018-12-22T00:22:34.483Z,-2.70
2018-12-22T00:25:06.458Z,-2.70
2018-12-22T00:27:38.887Z,-2.70
2018-12-22T00:30:12.963Z,-2.70
2018-12-22T00:32:45.300Z,-2.80
2018-12-22T00:35:17.478Z,-2.90
2018-12-22T00:37:49.553Z,-3.00
2018-12-22T00:40:22.017Z,-3.00
2018-12-22T00:42:54.200Z,-3.00
2018-12-22T00:45:26.525Z,-3.10
2018-12-22T00:47:58.508Z,-3.10
2018-12-22T00:50:30.608Z,-3.10
2018-12-22T00:53:02.406Z,-3.20
2018-12-22T00:55:34.171Z,-3.20
2018-12-22T00:58:06.374Z,-3.20
2018-12-22T01:00:38.877Z,-3.20
2018-12-22T01:03:11.984Z,-3.20
2018-12-22T01:05:44.325Z,-3.10
2018-12-22T01:08:16.114Z,-3.10
2018-12-22T01:10:48.130Z,-3.10
2018-12-22T01:13:20.216Z,-3.00
2018-12-22T01:15:52.296Z,-3.00
2018-12-22T01:18:24.974Z,-3.00
2018-12-22T01:20:56.649Z,-2.90
2018-12-22T01:23:29.288Z,-2.90
2018-12-22T01:26:02.170Z,-2.90
2018-12-22T01:28:39.323Z,-2.90
2018-12-22T01:31:08.194Z,-2.80
2018-12-22T01:33:40.645Z,-2.80
2018-12-22T01:36:13.170Z,-2.90
2018-12-22T01:38:45.017Z,-3.00
2018-12-22T01:41:16.868Z,-3.10
2018-12-22T01:43:48.960Z,-3.10
2018-12-22T01:46:20.760Z,-3.10
2018-12-22T01:48:52.588Z,-3.20
2018-12-22T01:51:24.809Z,-3.10
2018-12-22T01:53:56.804Z,-3.10
2018-12-22T01:56:29.037Z,-3.10
2018-12-22T01:59:01.766Z,-3.10
2018-12-22T02:01:33.594Z,-3.10
2018-12-22T02:04:06.396Z,-3.10
2018-12-22T02:06:39.402Z,-3.10
2018-12-22T02:09:12.409Z,-3.10
2018-12-22T02:11:44.764Z,-3.10
2018-12-22T02:14:16.583Z,-3.10
2018-12-22T02:16:48.490Z,-3.10
2018-12-22T02:19:20.894Z,-3.20
2018-12-22T02:21:52.596Z,-3.10
2018-12-22T02:24:25.375Z,-3.10
2018-12-22T02:26:58.253Z,-3.30
2018-12-22T02:29:30.303Z,-3.40
2018-12-22T02:32:02.342Z,-3.50
2018-12-22T02:34:34.917Z,-3.50
2018-12-22T02:37:06.842Z,-3.60
2018-12-22T02:39:39.575Z,-3.70
2018-12-22T02:42:11.699Z,-3.80
2018-12-22T02:44:43.914Z,-3.80
2018-12-22T02:47:15.710Z,-3.80
2018-12-22T02:49:48.372Z,-3.80
2018-12-22T02:52:20.479Z,-3.80
2018-12-22T02:54:52.355Z,-3.80
2018-12-22T02:57:24.398Z,-3.70
2018-12-22T02:59:56.318Z,-3.70
2018-12-22T03:02:28.359Z,-3.70
2018-12-22T03:05:00.834Z,-3.80
2018-12-22T03:07:32.591Z,-3.80
2018-12-22T03:10:05.350Z,-3.80
2018-12-22T03:12:37.895Z,-3.80
2018-12-22T03:15:09.837Z,-3.80
2018-12-22T03:17:41.877Z,-3.70
2018-12-22T03:20:13.794Z,-3.70
2018-12-22T03:22:45.779Z,-3.60
2018-12-22T03:25:18.566Z,-3.60
2018-12-22T03:27:50.309Z,-3.60
2018-12-22T03:30:22.231Z,-3.60
2018-12-22T03:32:54.000Z,-3.50
2018-12-22T03:35:26.074Z,-3.60
2018-12-22T03:37:57.889Z,-3.50
2018-12-22T03:40:30.662Z,-3.60
2018-12-22T03:43:02.602Z,-3.70
2018-12-22T03:45:34.758Z,-3.70
2018-12-22T03:48:07.076Z,-3.50
2018-12-22T03:50:39.254Z,-3.50
2018-12-22T03:53:11.195Z,-3.50
2018-12-22T03:55:43.280Z,-3.50
2018-12-22T03:58:16.804Z,-3.50
2018-12-22T04:00:48.723Z,-3.50
2018-12-22T04:03:20.630Z,-3.50
2018-12-22T04:05:52.493Z,-3.50
2018-12-22T04:08:24.631Z,-3.60
2018-12-22T04:10:56.531Z,-3.60
2018-12-22T04:13:28.480Z,-3.70
2018-12-22T04:16:00.323Z,-3.70
2018-12-22T04:18:32.738Z,-3.80
2018-12-22T04:21:05.029Z,-3.80
2018-12-22T04:23:36.840Z,-3.80
2018-12-22T04:26:09.319Z,-3.80
2018-12-22T04:28:41.345Z,-3.80
2018-12-22T04:31:13.482Z,-3.80
2018-12-22T04:33:45.420Z,-3.80
2018-12-22T04:36:18.791Z,-3.80
2018-12-22T04:38:51.056Z,-3.80
2018-12-22T04:41:22.929Z,-3.90
2018-12-22T04:43:55.253Z,-3.80
2018-12-22T04:46:27.409Z,-3.80
2018-12-22T04:48:59.717Z,-3.80
2018-12-22T04:51:31.531Z,-3.80
2018-12-22T04:54:04.463Z,-3.80
2018-12-22T04:56:36.809Z,-3.70
2018-12-22T04:59:09.112Z,-3.50
2018-12-22T05:01:42.107Z,-3.50
2018-12-22T05:04:13.862Z,-3.50
2018-12-22T05:06:45.573Z,-3.60
2018-12-22T05:09:17.610Z,-3.50
2018-12-22T05:11:50.218Z,-3.50
2018-12-22T05:14:23.158Z,-3.50
2018-12-22T05:16:54.919Z,-3.50
2018-12-22T05:19:26.912Z,-3.50
2018-12-22T05:21:58.751Z,-3.40
2018-12-22T05:24:31.306Z,-3.40
2018-12-22T05:27:02.966Z,-3.40
2018-12-22T05:29:35.335Z,-3.40
2018-12-22T05:32:07.176Z,-3.40
2018-12-22T05:34:38.854Z,-3.30
2018-12-22T05:37:11.001Z,-3.20
2018-12-22T05:39:42.693Z,-3.10
2018-12-22T05:42:15.265Z,-3.00
2018-12-22T05:44:48.156Z,-3.10
2018-12-22T05:47:20.141Z,-3.30
2018-12-22T05:49:51.961Z,-3.30
2018-12-22T05:52:24.841Z,-3.30
2018-12-22T05:54:57.028Z,-3.30
2018-12-22T05:57:28.972Z,-3.30
2018-12-22T06:00:01.051Z,-3.40
2018-12-22T06:02:33.053Z,-3.40
2018-12-22T06:05:07.318Z,-3.20
2018-12-22T06:07:39.336Z,-3.10
2018-12-22T06:10:11.479Z,-3.10
2018-12-22T06:12:44.328Z,-3.10
2018-12-22T06:15:16.182Z,-3.20
2018-12-22T06:17:48.548Z,-3.40
2018-12-22T06:20:20.381Z,-3.40
2018-12-22T06:22:52.069Z,-3.50
2018-12-22T06:25:24.194Z,-3.40
2018-12-22T06:27:55.581Z,-3.50
2018-12-22T06:30:27.419Z,-3.50
2018-12-22T06:32:59.364Z,-3.40
2018-12-22T06:35:32.479Z,-3.30
2018-12-22T06:38:04.456Z,-3.20
2018-12-22T06:40:36.417Z,-3.20
2018-12-22T06:43:08.012Z,-3.40
2018-12-22T06:45:40.130Z,-3.50
2018-12-22T06:48:12.132Z,-3.70
2018-12-22T06:50:43.987Z,-3.70
2018-12-22T06:53:16.301Z,-3.70
2018-12-22T06:55:48.399Z,-3.70
2018-12-22T06:58:19.735Z,-3.60
2018-12-22T07:00:51.724Z,-3.50
2018-12-22T07:03:23.960Z,-3.60
2018-12-22T07:05:56.290Z,-3.50
2018-12-22T07:08:28.419Z,-3.40
2018-12-22T07:11:00.220Z,-3.30
2018-12-22T07:13:33.098Z,-3.00
2018-12-22T07:16:07.409Z,-2.90
2018-12-22T07:18:39.549Z,-2.70
2018-12-22T07:21:11.399Z,-2.50
2018-12-22T07:23:43.212Z,-2.20
2018-12-22T07:26:15.129Z,-2.10
2018-12-22T07:28:47.159Z,-1.90
2018-12-22T07:31:19.585Z,-1.70
2018-12-22T07:33:51.659Z,-1.50
2018-12-22T07:36:25.260Z,-1.30
2018-12-22T07:38:57.829Z,-1.10
2018-12-22T07:41:30.076Z,-1.00
2018-12-22T07:44:02.234Z,-1.00
2018-12-22T07:46:34.101Z,-1.10
2018-12-22T07:49:06.415Z,-1.20
2018-12-22T07:51:38.285Z,-1.40
2018-12-22T07:54:10.511Z,-1.50
2018-12-22T07:56:42.687Z,-1.50
2018-12-22T07:59:14.562Z,-1.50
2018-12-22T08:01:46.956Z,-1.50
2018-12-22T08:04:18.902Z,-1.50
2018-12-22T08:06:51.170Z,-1.40
2018-12-22T08:09:23.777Z,-1.30
2018-12-22T08:11:55.740Z,-1.30
2018-12-22T08:14:27.702Z,-1.30
2018-12-22T08:17:00.157Z,-1.30
2018-12-22T08:19:32.156Z,-1.10
2018-12-22T08:22:04.962Z,-0.70
2018-12-22T08:24:37.009Z,-0.10
2018-12-22T08:27:08.819Z,0.60
2018-12-22T08:29:40.982Z,1.50
2018-12-22T08:32:12.547Z,2.40
2018-12-22T08:34:44.711Z,2.80
2018-12-22T08:37:17.485Z,2.70
2018-12-22T08:39:50.837Z,3.20
2018-12-22T08:42:23.002Z,3.90
2018-12-22T08:44:54.922Z,4.20
2018-12-22T08:47:26.431Z,4.10
2018-12-22T08:49:58.392Z,4.00
2018-12-22T08:52:31.017Z,3.80
2018-12-22T08:55:03.194Z,3.60
2018-12-22T08:57:35.145Z,3.40
2018-12-22T09:00:10.901Z,3.40
2018-12-22T09:02:42.846Z,3.40
2018-12-22T09:05:15.068Z,3.20
2018-12-22T09:07:47.200Z,3.20
2018-12-22T09:10:18.943Z,3.30
2018-12-22T09:12:51.406Z,3.30
2018-12-22T09:15:24.047Z,3.20
2018-12-22T09:17:56.302Z,3.10
2018-12-22T09:20:28.580Z,2.80
2018-12-22T09:23:00.491Z,2.90
2018-12-22T09:25:32.538Z,3.30
2018-12-22T09:28:04.578Z,3.50
2018-12-22T09:30:36.993Z,3.60
2018-12-22T09:33:09.093Z,3.80
2018-12-22T09:35:41.240Z,3.70
2018-12-22T09:38:13.700Z,3.60
2018-12-22T09:40:45.666Z,3.60
2018-12-22T09:43:17.465Z,3.50
2018-12-22T09:45:49.637Z,3.40
2018-12-22T09:48:22.610Z,3.60
2018-12-22T09:50:54.644Z,3.90
2018-12-22T09:53:26.848Z,4.10
2018-12-22T09:55:58.871Z,4.30
2018-12-22T09:58:30.856Z,4.50
2018-12-22T10:01:09.243Z,4.50
2018-12-22T10:03:37.456Z,4.10
2018-12-22T10:06:10.258Z,4.00
2018-12-22T10:08:42.353Z,4.00
2018-12-22T10:11:16.465Z,4.00
2018-12-22T10:13:48.795Z,4.00
2018-12-22T10:16:21.794Z,4.00
2018-12-22T10:18:54.260Z,4.00
2018-12-22T10:21:26.684Z,4.20
2018-12-22T10:23:58.946Z,4.40
2018-12-22T10:26:31.527Z,4.40
2018-12-22T10:29:03.812Z,4.50
2018-12-22T10:31:36.826Z,4.40
2018-12-22T10:34:09.312Z,4.30
2018-12-22T10:36:41.884Z,4.30
2018-12-22T10:39:13.736Z,4.30
2018-12-22T10:41:45.998Z,4.40
2018-12-22T10:44:18.347Z,4.40
2018-12-22T10:46:50.595Z,4.40
2018-12-22T10:49:22.880Z,4.30
2018-12-22T10:51:55.050Z,4.30
2018-12-22T10:54:27.540Z,4.30
2018-12-22T10:57:00.061Z,4.50
2018-12-22T10:59:32.466Z,4.60
2018-12-22T11:02:04.483Z,4.60
2018-12-22T11:04:37.363Z,4.50
2018-12-22T11:07:09.344Z,4.40
2018-12-22T11:09:42.309Z,4.20
2018-12-22T11:12:14.549Z,4.10
2018-12-22T11:14:47.030Z,4.00
2018-12-22T11:17:19.564Z,4.00
2018-12-22T11:19:52.576Z,3.90
2018-12-22T11:22:24.637Z,3.90
2018-12-22T11:24:56.961Z,4.10
2018-12-22T11:27:29.150Z,4.20
2018-12-22T11:30:01.438Z,4.30
2018-12-22T11:32:33.940Z,4.30
2018-12-22T11:35:06.211Z,4.40
2018-12-22T11:37:38.117Z,4.40
2018-12-22T11:40:11.499Z,4.50
2018-12-22T11:42:47.587Z,4.50
2018-12-22T11:45:18.579Z,4.50
2018-12-22T11:48:24.149Z,4.30
2018-12-22T11:50:57.169Z,4.20
2018-12-22T11:53:29.426Z,4.10
2018-12-22T11:56:01.931Z,4.10
2018-12-22T11:58:34.978Z,4.20
2018-12-22T12:01:07.057Z,4.30
2018-12-22T12:03:52.181Z,4.50
2018-12-22T12:06:23.176Z,4.60
2018-12-22T12:08:54.225Z,4.70
2018-12-22T12:11:25.422Z,4.70
2018-12-22T12:13:56.578Z,4.80
2018-12-22T12:16:44.652Z,4.90
2018-12-22T12:19:23.885Z,4.80
2018-12-22T12:21:54.831Z,4.70
2018-12-22T12:24:26.634Z,4.70
2018-12-22T12:26:58.118Z,4.60
2018-12-22T12:29:29.549Z,4.70
2018-12-22T12:32:00.577Z,4.60
2018-12-22T12:34:31.633Z,4.50
2018-12-22T12:37:02.606Z,4.40
2018-12-22T12:39:33.547Z,4.40
2018-12-22T12:42:04.580Z,4.30
2018-12-22T12:44:35.956Z,4.30
2018-12-22T12:47:07.026Z,4.20
2018-12-22T12:49:37.904Z,4.20
2018-12-22T12:52:08.956Z,4.20
2018-12-22T12:54:39.929Z,4.10
2018-12-22T12:57:11.188Z,4.00
2018-12-22T12:59:42.773Z,3.90
2018-12-22T13:02:13.998Z,3.80
2018-12-22T13:04:45.102Z,3.80
2018-12-22T13:07:16.146Z,3.80
2018-12-22T13:09:47.548Z,3.80
2018-12-22T13:12:24.248Z,3.80
2018-12-22T13:14:55.302Z,3.80
2018-12-22T13:17:26.918Z,3.80
2018-12-22T13:19:58.166Z,3.70
2018-12-22T13:22:29.513Z,3.70
2018-12-22T13:25:00.663Z,3.70
2018-12-22T13:27:31.794Z,3.70
2018-12-22T13:30:02.933Z,3.70
2018-12-22T13:32:34.192Z,3.70
2018-12-22T13:35:06.727Z,3.70
2018-12-22T13:37:38.061Z,3.70
2018-12-22T13:40:11.133Z,3.70
2018-12-22T13:42:42.199Z,3.60
2018-12-22T13:45:13.338Z,3.50
2018-12-22T13:47:44.646Z,3.50
2018-12-22T13:50:16.091Z,3.50
2018-12-22T13:52:47.194Z,3.40
2018-12-22T13:55:18.304Z,3.40
2018-12-22T13:57:49.527Z,3.30
2018-12-22T14:00:20.759Z,3.30
2018-12-22T14:02:52.011Z,3.30
2018-12-22T14:05:23.915Z,3.30
2018-12-22T14:07:55.126Z,3.20
2018-12-22T14:10:26.457Z,3.10
2018-12-22T14:12:57.616Z,3.10
2018-12-22T14:15:28.697Z,3.10
2018-12-22T14:18:17.577Z,3.00
2018-12-22T14:20:48.555Z,2.90
2018-12-22T14:23:20.655Z,2.90
2018-12-22T14:25:51.733Z,2.80
2018-12-22T14:28:22.955Z,2.90
2018-12-22T14:30:54.041Z,2.90
2018-12-22T14:33:25.482Z,2.60
2018-12-22T14:36:04.151Z,2.40
2018-12-22T14:38:35.302Z,2.30
2018-12-22T14:41:06.309Z,2.10
2018-12-22T14:43:37.588Z,1.90
2018-12-22T14:46:08.591Z,1.80
2018-12-22T14:48:39.725Z,1.70
2018-12-22T14:51:10.881Z,1.50
2018-12-22T14:53:42.058Z,1.40
2018-12-22T14:56:13.375Z,1.40
2018-12-22T14:58:44.533Z,1.30
2018-12-22T15:01:15.697Z,1.20
2018-12-22T15:03:46.985Z,1.20
2018-12-22T15:06:18.173Z,1.20
2018-12-22T15:08:49.382Z,1.10
2018-12-22T15:11:20.476Z,1.10
2018-12-22T15:13:51.513Z,1.10
2018-12-22T15:16:22.805Z,1.10
2018-12-22T15:18:54.112Z,1.00
2018-12-22T15:21:25.130Z,1.00
2018-12-22T15:23:56.293Z,0.80
2018-12-22T15:26:27.708Z,0.70
2018-12-22T15:28:59.053Z,0.60
2018-12-22T15:31:31.654Z,0.50
2018-12-22T15:34:02.953Z,0.50
2018-12-22T15:36:34.258Z,0.40
2018-12-22T15:39:07.658Z,0.40
2018-12-22T15:41:40.035Z,0.40
2018-12-22T15:44:12.115Z,0.40
2018-12-22T15:46:43.415Z,0.30
2018-12-22T15:49:16.377Z,0.30
2018-12-22T15:51:47.559Z,0.30
2018-12-22T15:54:18.710Z,0.30
2018-12-22T15:56:50.245Z,0.40
2018-12-22T15:59:21.605Z,0.30
2018-12-22T16:01:52.799Z,0.30
2018-12-22T16:04:24.014Z,0.30
2018-12-22T16:06:55.098Z,0.30
2018-12-22T16:09:26.187Z,0.30
2018-12-22T16:11:57.474Z,0.30
2018-12-22T16:14:28.618Z,0.30
2018-12-22T16:17:01.018Z,0.40
2018-12-22T16:19:32.813Z,0.40
2018-12-22T16:22:04.493Z,0.40
2018-12-22T16:24:35.600Z,0.40
2018-12-22T16:27:07.807Z,0.30
2018-12-22T16:29:44.328Z,0.40
2018-12-22T16:32:15.454Z,0.40
2018-12-22T16:34:46.491Z,0.30
2018-12-22T16:37:17.838Z,0.30
2018-12-22T16:39:48.836Z,0.30
2018-12-22T16:42:19.989Z,0.30
2018-12-22T16:44:51.617Z,0.30
2018-12-22T16:47:22.773Z,0.20
2018-12-22T16:49:54.340Z,0.20
2018-12-22T16:52:25.496Z,0.20
2018-12-22T16:54:56.624Z,0.20
2018-12-22T16:57:27.713Z,0.10
2018-12-22T16:59:58.752Z,0.10
2018-12-22T17:02:45.786Z,0.10
2018-12-22T17:05:16.928Z,0.10
2018-12-22T17:07:47.966Z,0.10
2018-12-22T17:10:24.641Z,0.00
2018-12-22T17:12:56.109Z,0.00
2018-12-22T17:15:27.223Z,0.00
2018-12-22T17:17:58.218Z,0.00
2018-12-22T17:20:31.974Z,-0.10
2018-12-22T17:23:51.393Z,-0.10
2018-12-22T17:26:24.472Z,-0.10
2018-12-22T17:28:56.188Z,-0.20
2018-12-22T17:31:27.471Z,-0.20
2018-12-22T17:33:58.590Z,-0.20
2018-12-22T17:36:29.741Z,-0.20
2018-12-22T17:39:00.993Z,-0.30
2018-12-22T17:41:32.379Z,-0.30
2018-12-22T17:44:03.525Z,-0.40
2018-12-22T17:46:34.643Z,-0.40
2018-12-22T17:49:05.844Z,-0.40
2018-12-22T17:51:38.958Z,-0.50
2018-12-22T17:54:10.066Z,-0.60
2018-12-22T17:56:41.243Z,-0.60
2018-12-22T17:59:12.276Z,-0.50
2018-12-22T18:01:44.246Z,-0.60
2018-12-22T18:04:15.304Z,-0.60
2018-12-22T18:06:46.374Z,-0.60
2018-12-22T18:09:17.801Z,-0.60
2018-12-22T18:11:49.028Z,-0.60
2018-12-22T18:14:20.551Z,-0.60
2018-12-22T18:16:52.429Z,-0.70
2018-12-22T18:19:24.050Z,-0.60
2018-12-22T18:21:55.553Z,-0.60
2018-12-22T18:24:26.789Z,-0.70
2018-12-22T18:26:58.105Z,-0.70
2018-12-22T18:29:29.432Z,-0.80
2018-12-22T18:32:00.452Z,-0.70
2018-12-22T18:34:31.494Z,-0.70
2018-12-22T18:37:02.610Z,-0.80
2018-12-22T18:39:33.694Z,-0.70
2018-12-22T18:42:04.784Z,-0.70
2018-12-22T18:44:35.824Z,-0.70
2018-12-22T18:47:06.993Z,-0.70
2018-12-22T18:49:38.192Z,-0.80
2018-12-22T18:52:09.242Z,-0.80
2018-12-22T18:54:40.512Z,-0.70
2018-12-22T18:57:12.450Z,-0.70
2018-12-22T18:59:43.655Z,-0.70
2018-12-22T19:02:15.135Z,-0.70
2018-12-22T19:04:47.245Z,-0.60
2018-12-22T19:07:20.271Z,-0.60
2018-12-22T19:09:52.161Z,-0.50
2018-12-22T19:12:23.260Z,-0.50
2018-12-22T19:14:54.151Z,-0.50
2018-12-22T19:17:25.178Z,-0.40
2018-12-22T19:19:56.449Z,-0.40
2018-12-22T19:22:28.266Z,-0.40
2018-12-22T19:24:59.425Z,-0.40
2018-12-22T19:27:30.644Z,-0.30
2018-12-22T19:30:01.891Z,-0.20
2018-12-22T19:32:33.133Z,-0.20
2018-12-22T19:35:04.569Z,-0.20
2018-12-22T19:37:35.670Z,-0.10
2018-12-22T19:40:07.254Z,-0.10
2018-12-22T19:42:38.395Z,-0.10
2018-12-22T19:45:09.776Z,-0.10
2018-12-22T19:47:40.881Z,0.00
2018-12-22T19:50:12.011Z,0.00
2018-12-22T19:52:44.285Z,0.00
2018-12-22T19:55:15.241Z,0.10
2018-12-22T19:57:46.259Z,0.10
2018-12-22T20:00:17.593Z,0.10
2018-12-22T20:02:48.893Z,0.10
2018-12-22T20:05:19.872Z,0.10
2018-12-22T20:07:51.110Z,0.20
2018-12-22T20:10:22.286Z,0.40
2018-12-22T20:12:53.380Z,0.80
2018-12-22T20:15:24.338Z,1.10
2018-12-22T20:17:55.422Z,1.20
2018-12-22T20:20:26.488Z,1.30
2018-12-22T20:22:57.470Z,1.30
2018-12-22T20:25:28.493Z,1.30
2018-12-22T20:27:59.610Z,1.30
2018-12-22T20:30:30.599Z,1.30
2018-12-22T20:33:02.028Z,1.40
2018-12-22T20:35:32.980Z,1.30
2018-12-22T20:38:04.108Z,1.20
2018-12-22T20:40:35.196Z,1.10
2018-12-22T20:43:06.416Z,1.10
2018-12-22T20:45:37.582Z,1.00
2018-12-22T20:48:08.672Z,1.00
2018-12-22T20:50:39.615Z,1.00
2018-12-22T20:53:10.581Z,0.90
2018-12-22T20:55:41.830Z,0.90
2018-12-22T20:58:12.948Z,0.90
2018-12-22T21:00:43.988Z,0.90
2018-12-22T21:03:15.063Z,0.90
2018-12-22T21:05:58.893Z,0.90
2018-12-22T21:08:30.665Z,0.90
2018-12-22T21:11:01.937Z,0.90
2018-12-22T21:13:32.934Z,0.90
2018-12-22T21:16:03.870Z,0.90
2018-12-22T21:18:34.951Z,1.00
2018-12-22T21:21:05.954Z,0.90
2018-12-22T21:23:37.128Z,0.90
2018-12-22T21:26:08.323Z,0.90
2018-12-22T21:28:39.313Z,0.90
2018-12-22T21:31:10.287Z,1.00
2018-12-22T21:33:41.606Z,1.00
2018-12-22T21:36:12.717Z,0.90
2018-12-22T21:38:43.770Z,1.00
2018-12-22T21:41:14.876Z,1.00
2018-12-22T21:43:45.908Z,1.00
2018-12-22T21:46:17.001Z,1.00
2018-12-22T21:48:48.471Z,1.00
2018-12-22T21:51:19.563Z,1.00
2018-12-22T21:53:50.800Z,1.10
2018-12-22T21:56:21.813Z,1.10
2018-12-22T21:58:52.773Z,1.10
2018-12-22T22:01:23.720Z,1.10
2018-12-22T22:03:54.773Z,1.10
2018-12-22T22:06:25.943Z,1.20
2018-12-22T22:08:56.865Z,1.20
2018-12-22T22:11:27.885Z,1.20
2018-12-22T22:13:59.077Z,1.20
2018-12-22T22:16:30.031Z,1.20
2018-12-22T22:19:00.933Z,1.20
2018-12-22T22:21:31.952Z,1.20
2018-12-22T22:24:03.040Z,1.30
2018-12-22T22:26:34.180Z,1.30
2018-12-22T22:29:05.324Z,1.30
2018-12-22T22:31:36.264Z,1.30
2018-12-22T22:34:07.174Z,1.40
2018-12-22T22:36:38.945Z,1.40
2018-12-22T22:39:10.338Z,1.50
2018-12-22T22:41:41.195Z,1.70
2018-12-22T22:44:12.167Z,1.80
2018-12-22T22:46:43.218Z,2.00
2018-12-22T22:49:14.331Z,2.10
2018-12-22T22:51:45.405Z,2.20
2018-12-22T22:54:16.650Z,2.30
2018-12-22T22:56:47.568Z,2.30
2018-12-22T22:59:18.858Z,2.30
2018-12-22T23:01:49.717Z,2.20
2018-12-22T23:04:22.500Z,2.30
2018-12-22T23:06:53.725Z,2.40
2018-12-22T23:09:24.867Z,2.30
2018-12-22T23:11:55.865Z,2.40
2018-12-22T23:14:26.723Z,2.40
2018-12-22T23:16:57.742Z,2.50
2018-12-22T23:19:28.799Z,2.50
2018-12-22T23:21:59.742Z,2.50
2018-12-22T23:24:30.500Z,2.60
2018-12-22T23:27:01.373Z,2.50
2018-12-22T23:29:32.520Z,2.50
2018-12-22T23:32:03.767Z,2.40
2018-12-22T23:34:34.932Z,2.30
2018-12-22T23:37:05.778Z,2.20
2018-12-22T23:39:37.252Z,2.20
2018-12-22T23:42:08.267Z,2.20
2018-12-22T23:44:39.755Z,2.10
2018-12-22T23:47:10.617Z,2.10
2018-12-22T23:49:41.715Z,2.10
2018-12-22T23:52:13.057Z,2.10
2018-12-22T23:54:43.870Z,2.10
2018-12-22T23:57:14.963Z,2.10
2018-12-22T23:59:46.217Z,2.10
